Cap Ferrato — 9HA3174 — position and weather

sailwx.info

Track history (hours):
 
Tides and Currents Weather Stations Pressure Air Temp Water Temp Dewpoint Dewpoint Depression Visibility Wind Speed Wind Dir Waves Ship Positions

Cap Ferrato

Last reported at 2018-Jun-21 20:14 UTC. Time now 2018-Jun-21 23:52 UTC.
Position N 23°08' E 117°18'.

Length 256 m; draft 11.7 m.

Type: Cargo ship. MMSI: 229249000.

Date/timePositionNaut miles runAvg speedWind from/ knotsBaromVisibWave heightAir tempDewpointWater temp
2018-Jun-21 20:14N 23°08' E 117°18'517.1
2018-Jun-21 19:55N 23°12' E 117°22'717.3
2018-Jun-21 19:30N 23°18' E 117°27'816.9
2018-Jun-21 19:01N 23°25' E 117°32'816.4
2018-Jun-21 18:30N 23°30' E 117°39'917.6
2018-Jun-21 18:00N 23°34' E 117°48'917.8
2018-Jun-21 17:31N 23°40' E 117°54'918.0
2018-Jun-21 17:01N 23°46' E 118°02'917.8
2018-Jun-21 16:31N 23°52' E 118°09'917.8
2018-Jun-21 16:00N 23°58' E 118°16'917.0
2018-Jun-21 15:30N 24°06' E 118°20'715.2
2018-Jun-21 15:00N 24°13' E 118°17'611.3
2018-Jun-21 14:30N 24°17' E 118°13'713.5
2018-Jun-21 14:00N 24°22' E 118°08'612.3
2018-Jun-21 13:30N 24°26' E 118°03'5 9.7
2018-Jun-21 13:00N 24°31' E 118°04'0 0.4
2018-Jun-21 12:30N 24°31' E 118°05'0 0.0
2018-Jun-21 12:00N 24°31' E 118°05'0 0.0
2018-Jun-21 11:30N 24°31' E 118°05'0 0.0
2018-Jun-21 11:00N 24°31' E 118°05'0 0.0
2018-Jun-21 10:30N 24°31' E 118°05'0 0.0
2018-Jun-21 10:00N 24°31' E 118°05'0 0.0
2018-Jun-21 09:30N 24°31' E 118°05'0 0.0
2018-Jun-21 09:00N 24°31' E 118°05'0 0.0
2018-Jun-21 08:30N 24°31' E 118°05'0 0.0
2018-Jun-21 08:00N 24°31' E 118°05'0 0.0
2018-Jun-21 07:30N 24°31' E 118°05'0 0.0
2018-Jun-21 07:00N 24°31' E 118°05'0 0.0
2018-Jun-21 06:30N 24°31' E 118°05'0 0.0
2018-Jun-21 06:00N 24°31' E 118°05'0 0.0
2018-Jun-21 05:30N 24°31' E 118°05'0 0.0
2018-Jun-21 05:00N 24°31' E 118°05'0 0.0
2018-Jun-21 04:30N 24°31' E 118°05'0 0.0
2018-Jun-21 04:00N 24°31' E 118°05'0 0.0
2018-Jun-21 03:30N 24°31' E 118°05'0 0.0
2018-Jun-21 03:00N 24°31' E 118°05'0 0.0
2018-Jun-21 02:30N 24°31' E 118°05'0 0.0
2018-Jun-21 02:00N 24°31' E 118°05'0 0.0
2018-Jun-21 01:30N 24°31' E 118°05'0 0.0
2018-Jun-21 01:00N 24°31' E 118°05'2 3.7
2018-Jun-21 00:30N 24°29' E 118°04'510.5
2018-Jun-21 00:01N 24°24' E 118°06'611.5
2018-Jun-20 23:30N 24°20' E 118°11'611.1
2018-Jun-20 23:00N 24°16' E 118°15'611.2
2018-Jun-20 22:31N 24°13' E 118°20'4 8.5
2018-Jun-20 22:00N 24°13' E 118°24'5 9.8
2018-Jun-20 21:30N 24°11' E 118°29'611.4
2018-Jun-20 21:00N 24°09' E 118°35'10012.4
2018-Jun-20 12:53N 22°60' E 119°54'514.0
2018-Jun-20 12:30N 22°55' E 119°57'713.9
2018-Jun-20 12:00N 22°49' E 120°00'713.7
2018-Jun-20 11:29N 22°42' E 120°03'713.7
2018-Jun-20 11:00N 22°36' E 120°06'612.9
2018-Jun-20 10:30N 22°33' E 120°12'611.3
2018-Jun-20 09:59N 22°33' E 120°19'1 1.6
2018-Jun-20 09:30N 22°34' E 120°19'0 0.0
2018-Jun-20 08:59N 22°34' E 120°19'0 0.0
2018-Jun-20 08:29N 22°34' E 120°19'0 0.0
2018-Jun-20 07:59N 22°34' E 120°19'0 0.0
2018-Jun-20 07:29N 22°34' E 120°19'0 0.1
2018-Jun-20 06:53N 22°34' E 120°19'0 0.0
2018-Jun-20 06:29N 22°34' E 120°19'0 0.0
2018-Jun-20 05:53N 22°34' E 120°19'0 0.0
2018-Jun-20 05:23N 22°34' E 120°19'0 0.0
2018-Jun-20 04:53N 22°34' E 120°19'0 0.0
2018-Jun-20 04:29N 22°34' E 120°19'0 0.0
2018-Jun-20 03:59N 22°34' E 120°19'0 0.0
2018-Jun-20 03:29N 22°34' E 120°19'0 0.0
2018-Jun-20 02:59N 22°34' E 120°19'0 0.0
2018-Jun-20 02:29N 22°34' E 120°19'0 0.0
2018-Jun-20 01:59N 22°34' E 120°19'0 0.0
2018-Jun-20 01:29N 22°34' E 120°19'0 0.0
2018-Jun-20 00:59N 22°34' E 120°19'0 0.0
2018-Jun-20 00:29N 22°34' E 120°19'0 0.0
2018-Jun-19 23:59N 22°34' E 120°19'0 0.0
2018-Jun-19 23:29N 22°34' E 120°19'0 0.0
2018-Jun-19 23:00N 22°34' E 120°19'0 0.5
2018-Jun-19 22:30N 22°33' E 120°19'4 7.3
2018-Jun-19 22:00N 22°32' E 120°15'4 7.9
2018-Jun-19 21:30N 22°29' E 120°13'5 9.5
2018-Jun-19 20:58N 22°24' E 120°13'612.5
2018-Jun-19 20:30N 22°19' E 120°14'612.3
2018-Jun-19 20:00N 22°13' E 120°16'  
2018-Jun-17 00:00N 12°36' E 130°12'16413.6 1010.010.8 28.025.3
2018-Jun-16 12:00N 10°42' E 132°12'7612.7 340 / 101009.010.8 27.024.3
2018-Jun-16 06:00N 09°54' E 133°12'59 9.8 290 / 151008.0 5.4 27.024.3
2018-Jun-16 00:00N 09°12' E 133°54'16914.1 270 / 181009.510.8 29.023.5
2018-Jun-15 12:00N 07°12' E 135°54'54011.2 020 / 101012.0 5.4 26.024.6
2018-Jun-13 12:00N 00°24' E 141°48'30112.6 200 / 51011.0 5.4 28.023.9
2018-Jun-12 12:00S 03°12' E 145°18'14412.0 070 / 141011.0 5.4 28.025.3
2018-Jun-12 00:00S 04°48' E 147°06'   160 / 141011.010.8 28.023.9
Track history (hours):
 
Tides and Currents Weather Stations Pressure Air Temp Water Temp Dewpoint Dewpoint Depression Visibility Wind Speed Wind Dir Waves Ship Positions

Cap Ferrato

Last reported at 2018-Jun-21 20:14 UTC. Time now 2018-Jun-21 23:52 UTC.
Position N 23°08' E 117°18'.

Length 256 m; draft 11.7 m.

Type: Cargo ship. MMSI: 229249000.

Date/timePositionNaut miles runAvg speedWind from/ knotsBaromVisibWave heightAir tempDewpointWater temp
2018-Jun-21 20:14N 23°08' E 117°18'517.1
2018-Jun-21 19:55N 23°12' E 117°22'717.3
2018-Jun-21 19:30N 23°18' E 117°27'816.9
2018-Jun-21 19:01N 23°25' E 117°32'816.4
2018-Jun-21 18:30N 23°30' E 117°39'917.6
2018-Jun-21 18:00N 23°34' E 117°48'917.8
2018-Jun-21 17:31N 23°40' E 117°54'918.0
2018-Jun-21 17:01N 23°46' E 118°02'917.8
2018-Jun-21 16:31N 23°52' E 118°09'917.8
2018-Jun-21 16:00N 23°58' E 118°16'917.0
2018-Jun-21 15:30N 24°06' E 118°20'715.2
2018-Jun-21 15:00N 24°13' E 118°17'611.3
2018-Jun-21 14:30N 24°17' E 118°13'713.5
2018-Jun-21 14:00N 24°22' E 118°08'612.3
2018-Jun-21 13:30N 24°26' E 118°03'5 9.7
2018-Jun-21 13:00N 24°31' E 118°04'0 0.4
2018-Jun-21 12:30N 24°31' E 118°05'0 0.0
2018-Jun-21 12:00N 24°31' E 118°05'0 0.0
2018-Jun-21 11:30N 24°31' E 118°05'0 0.0
2018-Jun-21 11:00N 24°31' E 118°05'0 0.0
2018-Jun-21 10:30N 24°31' E 118°05'0 0.0
2018-Jun-21 10:00N 24°31' E 118°05'0 0.0
2018-Jun-21 09:30N 24°31' E 118°05'0 0.0
2018-Jun-21 09:00N 24°31' E 118°05'0 0.0
2018-Jun-21 08:30N 24°31' E 118°05'0 0.0
2018-Jun-21 08:00N 24°31' E 118°05'0 0.0
2018-Jun-21 07:30N 24°31' E 118°05'0 0.0
2018-Jun-21 07:00N 24°31' E 118°05'0 0.0
2018-Jun-21 06:30N 24°31' E 118°05'0 0.0
2018-Jun-21 06:00N 24°31' E 118°05'0 0.0
2018-Jun-21 05:30N 24°31' E 118°05'0 0.0
2018-Jun-21 05:00N 24°31' E 118°05'0 0.0
2018-Jun-21 04:30N 24°31' E 118°05'0 0.0
2018-Jun-21 04:00N 24°31' E 118°05'0 0.0
2018-Jun-21 03:30N 24°31' E 118°05'0 0.0
2018-Jun-21 03:00N 24°31' E 118°05'0 0.0
2018-Jun-21 02:30N 24°31' E 118°05'0 0.0
2018-Jun-21 02:00N 24°31' E 118°05'0 0.0
2018-Jun-21 01:30N 24°31' E 118°05'0 0.0
2018-Jun-21 01:00N 24°31' E 118°05'2 3.7
2018-Jun-21 00:30N 24°29' E 118°04'510.5
2018-Jun-21 00:01N 24°24' E 118°06'611.5
2018-Jun-20 23:30N 24°20' E 118°11'611.1
2018-Jun-20 23:00N 24°16' E 118°15'611.2
2018-Jun-20 22:31N 24°13' E 118°20'4 8.5
2018-Jun-20 22:00N 24°13' E 118°24'5 9.8
2018-Jun-20 21:30N 24°11' E 118°29'611.4
2018-Jun-20 21:00N 24°09' E 118°35'10012.4
2018-Jun-20 12:53N 22°60' E 119°54'514.0
2018-Jun-20 12:30N 22°55' E 119°57'713.9
2018-Jun-20 12:00N 22°49' E 120°00'713.7
2018-Jun-20 11:29N 22°42' E 120°03'713.7
2018-Jun-20 11:00N 22°36' E 120°06'612.9
2018-Jun-20 10:30N 22°33' E 120°12'611.3
2018-Jun-20 09:59N 22°33' E 120°19'1 1.6
2018-Jun-20 09:30N 22°34' E 120°19'0 0.0
2018-Jun-20 08:59N 22°34' E 120°19'0 0.0
2018-Jun-20 08:29N 22°34' E 120°19'0 0.0
2018-Jun-20 07:59N 22°34' E 120°19'0 0.0
2018-Jun-20 07:29N 22°34' E 120°19'0 0.1
2018-Jun-20 06:53N 22°34' E 120°19'0 0.0
2018-Jun-20 06:29N 22°34' E 120°19'0 0.0
2018-Jun-20 05:53N 22°34' E 120°19'0 0.0
2018-Jun-20 05:23N 22°34' E 120°19'0 0.0
2018-Jun-20 04:53N 22°34' E 120°19'0 0.0
2018-Jun-20 04:29N 22°34' E 120°19'0 0.0
2018-Jun-20 03:59N 22°34' E 120°19'0 0.0
2018-Jun-20 03:29N 22°34' E 120°19'0 0.0
2018-Jun-20 02:59N 22°34' E 120°19'0 0.0
2018-Jun-20 02:29N 22°34' E 120°19'0 0.0
2018-Jun-20 01:59N 22°34' E 120°19'0 0.0
2018-Jun-20 01:29N 22°34' E 120°19'0 0.0
2018-Jun-20 00:59N 22°34' E 120°19'0 0.0
2018-Jun-20 00:29N 22°34' E 120°19'0 0.0
2018-Jun-19 23:59N 22°34' E 120°19'0 0.0
2018-Jun-19 23:29N 22°34' E 120°19'0 0.0
2018-Jun-19 23:00N 22°34' E 120°19'0 0.5
2018-Jun-19 22:30N 22°33' E 120°19'4 7.3
2018-Jun-19 22:00N 22°32' E 120°15'4 7.9
2018-Jun-19 21:30N 22°29' E 120°13'5 9.5
2018-Jun-19 20:58N 22°24' E 120°13'612.5
2018-Jun-19 20:30N 22°19' E 120°14'612.3
2018-Jun-19 20:00N 22°13' E 120°16'  
2018-Jun-17 00:00N 12°36' E 130°12'16413.6 1010.010.8 28.025.3
2018-Jun-16 12:00N 10°42' E 132°12'7612.7 340 / 101009.010.8 27.024.3
2018-Jun-16 06:00N 09°54' E 133°12'59 9.8 290 / 151008.0 5.4 27.024.3
2018-Jun-16 00:00N 09°12' E 133°54'16914.1 270 / 181009.510.8 29.023.5
2018-Jun-15 12:00N 07°12' E 135°54'54011.2 020 / 101012.0 5.4 26.024.6
2018-Jun-13 12:00N 00°24' E 141°48'30112.6 200 / 51011.0 5.4 28.023.9
2018-Jun-12 12:00S 03°12' E 145°18'14412.0 070 / 141011.0 5.4 28.025.3
2018-Jun-12 00:00S 04°48' E 147°06'   160 / 141011.010.8 28.023.9

Dump ship's entire track history